This is the latest recevied weather packets stored in our database for station/object EA5SW-14. If no packets are shown the sender has not sent any weather packets the latest 10 day(s).
| Time | Temp. | Humidity | Pressure | Rain* | Wind** | Luminosity | Snow |
|---|---|---|---|---|---|---|---|
| 1777737747 | 20° C | 69% | 1011.7 hPa | 0 mm | - | - | - |
| 1777737143 | 20° C | 70% | 1011.6 hPa | 0 mm | - | - | - |
| 1777729348 | 19.44° C | 69% | 1013.6 hPa | 0 mm | - | - | - |
| 1777726991 | 19.44° C | 68% | 1014.1 hPa | 0 mm | - | - | - |
| 1777726387 | 19.44° C | 68% | 1014.2 hPa | 0 mm | - | - | - |
| 1777721552 | 18.89° C | 67% | 1014.7 hPa | 0 mm | - | - | - |
| 1777717987 | 17.78° C | 72% | 1015.3 hPa | 0 mm | - | - | - |
| 1777710192 | 16.67° C | 78% | 1015.6 hPa | 0 mm | - | - | - |
| 1777709588 | 16.11° C | 79% | 1015.6 hPa | 0 mm | - | - | - |
| 1777706566 | 15° C | 84% | 1016 hPa | 0 mm | - | - | - |
| 1777704754 | 14.44° C | 87% | 1015.8 hPa | 0 mm | - | - | - |
| 1777702337 | 13.89° C | 89% | 1015.7 hPa | 0 mm | - | - | - |
| 1777696958 | 13.89° C | 89% | 1015.6 hPa | 0 mm | - | - | - |
| 1777696353 | 13.89° C | 88% | 1015.7 hPa | 0 mm | - | - | - |
| 1777694541 | 13.33° C | 90% | 1015.7 hPa | 0 mm | - | - | - |
| 1777693936 | 13.33° C | 90% | 1015.8 hPa | 0 mm | - | - | - |
| 1777693412 | 13.33° C | 89% | 1015.9 hPa | 0 mm | - | - | - |
| 1777692184 | 13.33° C | 90% | 1016.2 hPa | 0 mm | - | - | - |
| 1777681972 | 12.78° C | 92% | 1016.8 hPa | 0 mm | - | - | - |
| 1777680159 | 12.78° C | 91% | 1017.1 hPa | 0 mm | - | - | - |
| 1777675989 | 13.33° C | 89% | 1017.5 hPa | 0 mm | - | - | - |
| 1777668768 | 14.44° C | 89% | 1017.4 hPa | 0 mm | - | - | - |
| 1777665181 | 14.44° C | 89% | 1017.2 hPa | 0 mm | - | - | - |
| 1777662747 | 14.44° C | 88% | 1016.8 hPa | 0 mm | - | - | - |
| 1777662163 | 14.44° C | 87% | 1016.5 hPa | 0 mm | - | - | - |
* Rain latest hour (hover to see other rain measurements)
** Current wind speed in m/s (hover to see current wind gust speed)